7MD6 weather

65th Street Heliport
Ocean City, Maryland, United States

Public forecast

Using degrees Fahrenheit for public forecast. Weather courtesy of forecast.io.

METAR (pilot weather report)

Closest report is Ocean City Municipal Airport, 5.3 nm (9.9 km) SSW. Retrieved 2019/02/16 12:53 UTC (7 minutes ago):

KOXB 161253Z AUTO 36009KT 10SM SCT075 OVC100 07/M04 A2985 RMK AO2 RAB19E39 SLP108 P0000 T00721039

TAF (pilot weather forecast)

Closest forecast is Salisbury Ocean City Wicomico Regional Airport, 20.8 nm (38.6 km) W. Retrieved 2019/02/16 12:34 UTC (26 minutes ago):

TAF KSBY 161131Z 1612/1712 34009KT P6SM VCSH OVC060 FM161400 35019KT P6SM OVC035 FM161800 35008KT P6SM OVC045 FM162300 35007KT P6SM BKN090 FM170100 VRB03KT P6SM SKC